Pagrindinis puslapis
METAR-TAF:

METAR-TAF

Oro uostai :

Kupangas, Indonezija

platuma: 10-10-17S, ilguma: 123-40-16E, Aukštis: 102 m

METAR: trūkstamas

Laikas: 21:04 (14:04 UTC)

Prognozė

Ataskaita buvo paskelbta 3 valandos ir 4 minutes, ne 11:00 UTC
Prognozė galioja nuo 29 metu 12 UTC su 30 metu 12 UTC
Vėjas 5 kt iš Rytų/Pietryčių
Matomumas: 8000 m
Išsisklaidę debesys ne aukštis 1800 ft
Tapsmas
nuo 30 metu 02 UTC su 30 metu 04 UTC
Vėjas 10 kt iš Šiaurės/Šiaurės Vakarų

TAF: WATT 291100Z 2912/3012 11005KT 8000 SCT018 BECMG 3002/3004 33010KT

Orai ataskaitas ir orų prognozės (METAR, TAF).

turimą stotys yra geltonos ir raudonos taškus žemėlapyje.

Perkelti pele per norėdami pamatyti stoties vardą.

Tada spustelėkite, norėdami matyti oro stebėjimo ir prognozės.

Norėdami pakeisti žemėlapį: spustelėkite ant žalios mygtukų su juodo kryžiaus žemyn,; žalią mygtuką su brūkšneliu, jei norite nutolinti; arba žalių rodyklių gretimoms žemėlapius.


METAR-TAF: